Wilshamstead, United Kingdom
Current Conditions -  °F | °C
As of 5:20 PM on Tuesday 27 Jan 2015 (Local Time) from EGTC Reporting Station
Broken Clouds Broken Clouds  
Wind Chill: 40°   Ceiling: 2800
Heat Index: 45°   Visibility: 6mi
Dew Point: 37°   Wind: 9mph
Humidity: 76%   Direction: 250°WSW
Pressure: 30.21"   Gusts: NA
Location:  52.08°N, 0.45°W
Report Text: EGTC 271720Z 25008KT 9999 BKN028 07/03 Q1023
Loading
Personal Weather Stations






























Interactive Weather Map New forecast layout! Learn more

10-Day Weather Forecast

Advertisements
Track Severe Weather on mobile